createdAt,value
2018-08-24T00:28:53.825Z,11.25
2018-08-24T00:28:53.879Z,16.11
2018-08-24T00:28:53.914Z,16.11
2018-08-24T00:28:53.951Z,16.11
2018-08-24T00:28:53.952Z,16.11
2018-08-24T00:34:48.841Z,12.1
2018-08-24T00:40:43.857Z,11.64
2018-08-24T00:46:38.825Z,15.99
2018-08-24T00:52:33.778Z,13.24
2018-08-24T00:58:28.789Z,12.43
2018-08-24T01:04:23.862Z,16.72
2018-08-24T01:10:18.825Z,11.33
2018-08-24T01:16:13.803Z,11.4
2018-08-24T01:22:08.800Z,14.23
2018-08-24T01:28:03.834Z,12.82
2018-08-24T01:33:58.841Z,12.18
2018-08-24T01:39:53.832Z,15.67
2018-08-24T01:45:48.799Z,14.03
2018-08-24T01:51:43.816Z,13.32
2018-08-24T01:57:38.826Z,13.46
2018-08-24T02:03:33.825Z,15.04
2018-08-24T02:09:28.828Z,13.94
2018-08-24T02:15:23.866Z,12.49
2018-08-24T02:21:18.839Z,14.16
2018-08-24T02:27:13.805Z,12.55
2018-08-24T02:33:08.855Z,12.44
2018-08-24T02:39:03.898Z,13
2018-08-24T02:44:58.933Z,12.68
2018-08-24T02:50:53.880Z,13.95
2018-08-24T02:56:48.812Z,12.38
2018-08-24T03:02:43.840Z,11.28
2018-08-24T03:26:23.830Z,15.17
2018-08-24T03:26:23.866Z,13.13
2018-08-24T03:26:23.904Z,13.13
2018-08-24T03:26:23.945Z,13.13
2018-08-24T03:32:18.837Z,10.74
2018-08-24T03:38:13.854Z,12.2
2018-08-24T03:44:08.821Z,11.4
2018-08-24T03:50:03.849Z,13.92
2018-08-24T03:55:58.839Z,14.09
2018-08-24T04:01:53.819Z,14.89
2018-08-24T04:07:48.837Z,13.99
2018-08-24T04:13:43.879Z,12.77
2018-08-24T04:19:38.875Z,14.12
2018-08-24T04:25:33.915Z,14.5
2018-08-24T04:31:28.816Z,11.61
2018-08-24T04:37:23.832Z,13.55
2018-08-24T04:43:18.825Z,15.97
2018-08-24T04:49:13.818Z,15.92
2018-08-24T04:55:08.863Z,15.36
2018-08-24T05:01:03.856Z,14.77
2018-08-24T05:06:58.872Z,18.77
2018-08-24T05:12:53.856Z,14.06
2018-08-24T05:18:48.977Z,16.31
2018-08-24T05:24:43.922Z,17.39
2018-08-24T05:30:38.846Z,14.64
2018-08-24T05:36:33.857Z,13.85
2018-08-24T05:42:28.906Z,13.57
2018-08-24T05:48:23.816Z,18.2
2018-08-24T05:54:18.846Z,17.49
2018-08-24T06:00:13.856Z,14.82
2018-08-24T06:29:48.861Z,13.75
2018-08-24T06:29:48.900Z,19.69
2018-08-24T06:29:48.920Z,19.69
2018-08-24T06:29:48.941Z,19.69
2018-08-24T06:29:48.961Z,19.69
2018-08-24T06:35:43.882Z,18.05
2018-08-24T06:41:38.877Z,17.91
2018-08-24T06:47:33.876Z,18.22
2018-08-24T06:53:28.851Z,19.18
2018-08-24T06:59:23.876Z,18.97
2018-08-24T07:05:18.867Z,19.91
2018-08-24T07:11:13.884Z,18.34
2018-08-24T07:17:08.831Z,18.32
2018-08-24T07:23:03.836Z,20.17
2018-08-24T07:28:58.854Z,20.8
2018-08-24T07:34:53.843Z,21.48
2018-08-24T07:40:48.849Z,19.69
2018-08-24T07:46:43.852Z,18.06
2018-08-24T07:52:38.871Z,15.68
2018-08-24T07:58:33.853Z,15.37
2018-08-24T08:04:28.881Z,16.1
2018-08-24T08:10:23.851Z,16.32
2018-08-24T08:16:18.874Z,16.14
2018-08-24T08:22:13.893Z,14.13
2018-08-24T08:28:08.853Z,13.68
2018-08-24T08:34:03.897Z,16.17
2018-08-24T08:39:58.910Z,14.28
2018-08-24T08:45:53.912Z,14.82
2018-08-24T08:51:48.951Z,14.36
2018-08-24T08:57:43.918Z,15.35
2018-08-24T09:03:38.877Z,14.97
2018-08-24T09:27:18.902Z,14.17
2018-08-24T09:27:18.948Z,12.3
2018-08-24T09:27:18.953Z,12.3
2018-08-24T09:27:18.982Z,12.3
2018-08-24T09:33:13.882Z,12.63
2018-08-24T09:39:08.880Z,12
2018-08-24T09:45:03.892Z,12.49
2018-08-24T09:50:58.933Z,10.76
2018-08-24T09:56:53.909Z,13.12
2018-08-24T10:02:49.012Z,12.37
2018-08-24T10:08:43.948Z,12.35
2018-08-24T10:14:38.936Z,10.46
2018-08-24T10:20:33.936Z,13.87
2018-08-24T10:26:28.956Z,13.01
2018-08-24T10:32:23.932Z,10.76
2018-08-24T10:38:18.934Z,10.77
2018-08-24T10:44:13.945Z,11.39
2018-08-24T10:50:08.967Z,11.54
2018-08-24T10:56:04.109Z,10.62
2018-08-24T11:01:59.014Z,11.96
2018-08-24T11:07:53.913Z,11.1
2018-08-24T11:13:48.948Z,11.77
2018-08-24T11:19:43.949Z,10.92
2018-08-24T11:25:38.927Z,10.03
2018-08-24T11:31:34.066Z,10.48
2018-08-24T11:37:28.940Z,11.9
2018-08-24T11:43:23.994Z,11.51
2018-08-24T11:49:18.950Z,9.34
2018-08-24T11:55:13.975Z,12.42
2018-08-24T12:01:08.947Z,10.41
2018-08-24T12:30:44.008Z,9.75
2018-08-24T12:30:44.119Z,10.49
2018-08-24T12:30:44.131Z,10.49
2018-08-24T12:30:44.169Z,10.49
2018-08-24T12:30:44.188Z,10.49
2018-08-24T12:36:38.975Z,12.65
2018-08-24T12:42:33.975Z,10.44
2018-08-24T12:48:29.005Z,13.62
2018-08-24T12:54:23.994Z,10.14
2018-08-24T13:00:19.009Z,10.02
2018-08-24T13:06:14.011Z,8.56
2018-08-24T13:12:09.007Z,8.73
2018-08-24T13:18:04.013Z,9.96
2018-08-24T13:23:59.003Z,9.34
2018-08-24T13:29:54.005Z,8.25
2018-08-24T13:35:48.987Z,9.01
2018-08-24T13:41:44.038Z,9.04
2018-08-24T13:47:39.034Z,10.04
2018-08-24T13:53:34.043Z,11.01
2018-08-24T13:59:29.031Z,8.29
2018-08-24T14:05:24.105Z,10.4
2018-08-24T14:11:19.017Z,9.27
2018-08-24T14:17:14.016Z,9.26
2018-08-24T14:23:09.052Z,10.44
2018-08-24T14:29:04.038Z,12.34
2018-08-24T14:34:59.016Z,10.83
2018-08-24T14:40:54.051Z,8.11
2018-08-24T14:46:49.052Z,9.67
2018-08-24T14:52:44.059Z,9.94
2018-08-24T14:58:39.035Z,9.23
2018-08-24T15:04:34.184Z,10.8
2018-08-24T15:28:14.087Z,10.52
2018-08-24T15:28:14.277Z,10.6
2018-08-24T15:28:14.283Z,10.6
2018-08-24T15:28:14.318Z,10.6
2018-08-24T15:34:09.081Z,7.37
2018-08-24T15:40:04.051Z,7.07
2018-08-24T15:45:59.057Z,7.33
2018-08-24T15:51:54.052Z,7.14
2018-08-24T15:57:49.049Z,7.57
2018-08-24T16:03:44.084Z,8.05
2018-08-24T16:09:39.059Z,8.7
2018-08-24T16:15:34.053Z,7.82
2018-08-24T16:21:29.102Z,9.72
2018-08-24T16:27:24.119Z,6.37
2018-08-24T16:33:19.079Z,8.42
2018-08-24T16:39:14.074Z,7.6
2018-08-24T16:45:09.091Z,7.5
2018-08-24T16:51:04.089Z,8.43
2018-08-24T16:56:59.068Z,6.84
2018-08-24T17:02:54.071Z,6.23
2018-08-24T17:08:49.092Z,7.37
2018-08-24T17:14:44.107Z,7.78
2018-08-24T17:20:39.079Z,7
2018-08-24T17:26:34.098Z,8.99
2018-08-24T17:32:29.118Z,10.34
2018-08-24T17:38:24.158Z,9.35
2018-08-24T17:44:19.131Z,10.05
2018-08-24T17:50:14.122Z,9.54
2018-08-24T17:56:09.094Z,11.43
2018-08-24T18:02:04.096Z,9.13
2018-08-24T18:31:39.165Z,12.36
2018-08-24T18:31:39.168Z,9.4
2018-08-24T18:31:39.194Z,12.36
2018-08-24T18:31:39.224Z,12.36
2018-08-24T18:37:34.127Z,12.11
2018-08-24T18:43:29.146Z,11.45
2018-08-24T18:49:24.159Z,9.66
2018-08-24T18:55:19.145Z,12.46
2018-08-24T19:01:14.136Z,10.95
2018-08-24T19:07:09.161Z,10.94
2018-08-24T19:13:04.202Z,10.84
2018-08-24T19:18:59.177Z,15.62
2018-08-24T19:24:54.166Z,12.43
2018-08-24T19:30:49.145Z,10.2
2018-08-24T19:36:44.127Z,14.01
2018-08-24T19:42:39.180Z,13.55
2018-08-24T19:48:34.127Z,12.15
2018-08-24T19:54:29.178Z,12.93
2018-08-24T20:00:24.158Z,11.63
2018-08-24T20:06:19.216Z,12.42
2018-08-24T20:12:14.182Z,12.34
2018-08-24T20:18:09.199Z,12.25
2018-08-24T20:24:04.224Z,14.37
2018-08-24T20:29:59.237Z,13.43
2018-08-24T20:35:54.210Z,17
2018-08-24T20:41:49.209Z,14.7
2018-08-24T20:47:44.200Z,12.13
2018-08-24T20:53:39.181Z,12.89
2018-08-24T20:59:34.183Z,16.27
2018-08-24T21:05:29.197Z,12.98
2018-08-24T21:29:09.292Z,18.55
2018-08-24T21:29:09.301Z,12.61
2018-08-24T21:29:09.343Z,12.53
2018-08-24T21:29:09.343Z,12.53
2018-08-24T21:35:04.230Z,13.66
2018-08-24T21:40:59.183Z,12.65
2018-08-24T21:46:54.202Z,11.9
2018-08-24T21:52:49.206Z,13.03
2018-08-24T21:58:44.262Z,13.32
2018-08-24T22:04:39.196Z,17.71
2018-08-24T22:10:34.214Z,14.24
2018-08-24T22:16:29.198Z,14.54
2018-08-24T22:22:24.207Z,13.91
2018-08-24T22:28:19.216Z,15.02
2018-08-24T22:34:14.251Z,16.41
2018-08-24T22:40:09.209Z,14.33
2018-08-24T22:46:04.214Z,14.66
2018-08-24T22:51:59.218Z,13.1
2018-08-24T22:57:54.265Z,13.09
2018-08-24T23:03:49.246Z,19.43
2018-08-24T23:09:44.265Z,15.01
2018-08-24T23:15:39.247Z,13.64
2018-08-24T23:21:34.232Z,16.13
2018-08-24T23:27:29.268Z,15.55
2018-08-24T23:33:24.252Z,13.51
2018-08-24T23:39:19.254Z,14.5
2018-08-24T23:45:14.271Z,13.99
2018-08-24T23:51:09.263Z,13.58
2018-08-24T23:57:04.253Z,14.53
